Forest Dale, Vermont
Current Conditions -  °F | °C
As of 8:55 AM on Wednesday 26 Nov 2014 (Local Time) from K6B0 Reporting Station
Overcast Overcast  
Wind Chill: 31°   Ceiling: 12000
Heat Index: 36°   Visibility: 10mi
Dew Point: 23°   Wind: 7mph
Humidity: 59%   Direction: 350°N
Pressure: 30.22"   Gusts: NA
Location:  43.83°N, 73.05°W
Report Text: K6B0 261355Z AUTO 35006KT 10SM OVC120 02/M05 A3022 RMK AO2 T00231050
Loading
Personal Weather Stations






























Interactive Weather Map New forecast layout! Learn more

10-Day Weather Forecast

Advertisements
Track Severe Weather on mobile